createdAt,value
2017-08-24T00:00:40.275Z,6.77
2017-08-24T00:03:08.335Z,5.83
2017-08-24T00:05:36.417Z,5.80
2017-08-24T00:08:04.492Z,5.50
2017-08-24T00:10:32.553Z,5.03
2017-08-24T00:13:00.602Z,5.37
2017-08-24T00:15:28.687Z,5.50
2017-08-24T00:17:56.759Z,5.53
2017-08-24T00:20:24.831Z,5.50
2017-08-24T00:22:52.885Z,5.37
2017-08-24T00:25:20.931Z,6.33
2017-08-24T00:27:48.991Z,7.17
2017-08-24T00:30:17.079Z,7.00
2017-08-24T00:32:45.134Z,6.70
2017-08-24T00:35:13.183Z,6.53
2017-08-24T00:37:41.250Z,7.33
2017-08-24T00:40:09.331Z,7.10
2017-08-24T00:42:37.392Z,7.20
2017-08-24T00:45:05.471Z,8.43
2017-08-24T00:47:33.539Z,10.00
2017-08-24T00:50:01.608Z,13.20
2017-08-24T00:52:29.687Z,17.80
2017-08-24T00:54:57.754Z,20.60
2017-08-24T00:57:25.827Z,24.40
2017-08-24T00:59:53.894Z,25.00
2017-08-24T01:02:21.962Z,28.50
2017-08-24T01:04:50.030Z,29.30
2017-08-24T01:07:18.106Z,27.70
2017-08-24T01:09:46.183Z,25.07
2017-08-24T01:12:14.250Z,28.13
2017-08-24T01:14:42.349Z,26.03
2017-08-24T01:17:10.476Z,28.87
2017-08-24T01:19:38.543Z,30.27
2017-08-24T01:22:06.611Z,31.50
2017-08-24T01:24:34.684Z,33.47
2017-08-24T01:27:03.030Z,32.20
2017-08-24T01:29:31.102Z,34.50
2017-08-24T01:31:59.182Z,35.17
2017-08-24T01:34:27.271Z,34.50
2017-08-24T01:36:55.338Z,31.97
2017-08-24T01:39:23.412Z,31.17
2017-08-24T01:41:51.489Z,33.80
2017-08-24T01:44:19.550Z,34.63
2017-08-24T01:46:56.535Z,33.70
2017-08-24T01:49:24.641Z,33.13
2017-08-24T01:51:52.694Z,33.60
2017-08-24T01:54:20.750Z,32.40
2017-08-24T01:56:48.824Z,33.93
2017-08-24T01:59:16.927Z,32.70
2017-08-24T02:01:45.011Z,34.83
2017-08-24T02:04:13.077Z,31.00
2017-08-24T02:06:41.154Z,32.40
2017-08-24T02:09:09.214Z,30.40
2017-08-24T02:11:37.291Z,31.10
2017-08-24T02:14:05.356Z,29.67
2017-08-24T02:16:33.429Z,29.27
2017-08-24T02:19:01.497Z,28.83
2017-08-24T02:21:29.587Z,29.13
2017-08-24T02:23:57.651Z,28.37
2017-08-24T02:26:25.744Z,29.37
2017-08-24T02:28:55.115Z,26.80
2017-08-24T02:31:23.203Z,25.23
2017-08-24T02:33:51.283Z,25.83
2017-08-24T02:36:19.344Z,24.27
2017-08-24T02:38:47.402Z,25.80
2017-08-24T02:41:15.475Z,26.20
2017-08-24T02:43:43.546Z,25.43
2017-08-24T02:46:11.621Z,23.87
2017-08-24T02:48:39.683Z,24.07
2017-08-24T02:51:07.750Z,23.80
2017-08-24T02:53:35.823Z,25.63
2017-08-24T02:56:03.895Z,25.50
2017-08-24T02:58:31.976Z,25.30
2017-08-24T03:01:00.039Z,27.43
2017-08-24T03:03:28.099Z,28.17
2017-08-24T03:05:56.166Z,25.50
2017-08-24T03:08:24.243Z,27.03
2017-08-24T03:10:52.306Z,27.77
2017-08-24T03:13:20.372Z,27.37
2017-08-24T03:15:48.437Z,27.30
2017-08-24T03:18:16.519Z,30.07
2017-08-24T03:20:44.587Z,30.83
2017-08-24T03:23:12.682Z,30.50
2017-08-24T03:25:40.759Z,31.17
2017-08-24T03:28:08.844Z,30.47
2017-08-24T03:30:36.906Z,30.17
2017-08-24T03:33:05.760Z,32.50
2017-08-24T03:35:33.851Z,31.73
2017-08-24T03:38:01.924Z,32.73
2017-08-24T03:40:29.995Z,32.83
2017-08-24T03:42:58.075Z,33.93
2017-08-24T03:45:26.139Z,33.10
2017-08-24T03:47:54.278Z,34.10
2017-08-24T03:50:22.338Z,34.07
2017-08-24T03:52:50.412Z,33.60
2017-08-24T03:55:18.491Z,35.10
2017-08-24T03:57:46.562Z,32.73
2017-08-24T04:00:14.644Z,32.87
2017-08-24T04:02:42.700Z,32.60
2017-08-24T04:05:10.793Z,30.83
2017-08-24T04:07:38.862Z,30.37
2017-08-24T04:10:06.935Z,28.37
2017-08-24T04:12:35.804Z,30.70
2017-08-24T04:15:03.917Z,32.20
2017-08-24T04:17:31.999Z,31.00
2017-08-24T04:20:00.110Z,28.73
2017-08-24T04:22:28.182Z,28.10
2017-08-24T04:24:56.255Z,24.97
2017-08-24T04:27:24.327Z,22.97
2017-08-24T04:29:52.398Z,22.73
2017-08-24T04:32:21.599Z,23.50
2017-08-24T04:34:49.666Z,22.00
2017-08-24T04:37:17.735Z,23.10
2017-08-24T04:39:45.824Z,24.67
2017-08-24T04:42:13.910Z,24.17
2017-08-24T04:44:42.002Z,22.50
2017-08-24T04:47:10.979Z,22.07
2017-08-24T04:49:39.079Z,23.17
2017-08-24T04:52:07.154Z,19.97
2017-08-24T04:54:35.280Z,20.60
2017-08-24T04:57:04.124Z,20.07
2017-08-24T04:59:32.207Z,19.10
2017-08-24T05:02:01.047Z,18.50
2017-08-24T05:04:29.106Z,18.73
2017-08-24T05:06:57.215Z,18.47
2017-08-24T05:09:25.275Z,20.00
2017-08-24T05:11:53.335Z,18.93
2017-08-24T05:14:21.435Z,18.50
2017-08-24T05:16:49.501Z,16.97
2017-08-24T05:19:17.574Z,17.93
2017-08-24T05:21:45.655Z,17.60
2017-08-24T05:24:13.714Z,16.90
2017-08-24T05:26:41.787Z,16.67
2017-08-24T05:29:09.858Z,17.77
2017-08-24T05:31:37.931Z,18.03
2017-08-24T05:34:06.022Z,17.10
2017-08-24T05:36:34.875Z,16.77
2017-08-24T05:39:02.938Z,18.17
2017-08-24T05:41:31.007Z,20.37
2017-08-24T05:43:59.075Z,19.90
2017-08-24T05:46:27.135Z,21.97
2017-08-24T05:48:55.243Z,20.00
2017-08-24T05:51:23.294Z,20.63
2017-08-24T05:53:51.366Z,22.27
2017-08-24T05:56:19.452Z,22.60
2017-08-24T05:58:47.495Z,27.97
2017-08-24T06:01:15.558Z,32.53
2017-08-24T06:03:43.662Z,31.57
2017-08-24T06:06:11.726Z,34.83
2017-08-24T06:08:39.790Z,39.70
2017-08-24T06:11:07.863Z,44.40
2017-08-24T06:13:35.935Z,43.27
2017-08-24T06:16:04.008Z,41.20
2017-08-24T06:18:32.122Z,43.70
2017-08-24T06:21:00.293Z,41.63
2017-08-24T06:23:28.351Z,38.93
2017-08-24T06:25:57.198Z,30.47
2017-08-24T06:28:25.282Z,30.10
2017-08-24T06:30:53.354Z,27.93
2017-08-24T06:33:21.427Z,25.43
2017-08-24T06:35:49.527Z,27.60
2017-08-24T06:38:17.734Z,26.80
2017-08-24T06:40:47.444Z,25.43
2017-08-24T06:43:15.539Z,26.43
2017-08-24T06:45:43.628Z,25.17
2017-08-24T06:48:11.699Z,25.53
2017-08-24T06:50:39.766Z,24.53
2017-08-24T06:53:07.883Z,25.90
2017-08-24T06:55:35.947Z,26.00
2017-08-24T06:58:04.027Z,27.03
2017-08-24T07:00:32.877Z,29.20
2017-08-24T07:03:00.968Z,25.97
2017-08-24T07:05:29.051Z,30.27
2017-08-24T07:07:57.129Z,30.17
2017-08-24T07:10:25.955Z,30.70
2017-08-24T07:12:54.028Z,30.80
2017-08-24T07:15:22.094Z,32.67
2017-08-24T07:17:50.176Z,31.67
2017-08-24T07:20:18.247Z,27.77
2017-08-24T07:22:46.315Z,29.27
2017-08-24T07:25:14.396Z,29.27
2017-08-24T07:27:42.464Z,29.83
2017-08-24T07:30:10.563Z,30.33
2017-08-24T07:32:38.611Z,29.03
2017-08-24T07:35:06.679Z,27.20
2017-08-24T07:37:34.759Z,27.87
2017-08-24T07:40:02.823Z,27.60
2017-08-24T07:42:30.895Z,28.23
2017-08-24T07:44:58.946Z,27.57
2017-08-24T07:47:27.021Z,28.87
2017-08-24T07:49:55.096Z,29.00
2017-08-24T07:52:23.155Z,29.00
2017-08-24T07:54:51.251Z,31.43
2017-08-24T07:57:20.115Z,29.40
2017-08-24T07:59:48.222Z,30.40
2017-08-24T08:02:16.270Z,31.40
2017-08-24T08:04:44.339Z,31.10
2017-08-24T08:07:12.491Z,30.83
2017-08-24T08:09:40.548Z,29.57
2017-08-24T08:12:08.635Z,31.17
2017-08-24T08:14:36.695Z,30.17
2017-08-24T08:17:04.779Z,28.90
2017-08-24T08:19:32.839Z,28.00
2017-08-24T08:22:00.915Z,28.73
2017-08-24T08:24:29.003Z,27.67
2017-08-24T08:26:57.063Z,30.80
2017-08-24T08:29:25.133Z,27.60
2017-08-24T08:31:53.207Z,28.40
2017-08-24T08:34:21.276Z,27.30
2017-08-24T08:36:49.347Z,26.90
2017-08-24T08:39:17.443Z,26.67
2017-08-24T08:41:45.520Z,28.30
2017-08-24T08:44:13.607Z,25.57
2017-08-24T08:46:42.451Z,26.07
2017-08-24T08:49:10.535Z,28.00
2017-08-24T08:51:38.591Z,27.00
2017-08-24T08:54:07.129Z,26.43
2017-08-24T08:56:35.207Z,25.07
2017-08-24T08:59:03.295Z,25.37
2017-08-24T09:01:31.386Z,25.30
2017-08-24T09:03:59.470Z,25.80
2017-08-24T09:06:28.124Z,25.00
2017-08-24T09:08:56.198Z,26.63
2017-08-24T09:11:24.280Z,25.20
2017-08-24T09:13:52.351Z,24.70
2017-08-24T09:16:20.414Z,25.77
2017-08-24T09:18:48.487Z,22.70
2017-08-24T09:21:16.579Z,23.13
2017-08-24T09:23:44.635Z,22.67
2017-08-24T09:26:12.708Z,22.00
2017-08-24T09:28:40.787Z,22.60
2017-08-24T09:31:08.861Z,21.57
2017-08-24T09:33:36.936Z,19.87
2017-08-24T09:36:05.041Z,20.73
2017-08-24T09:38:33.883Z,20.40
2017-08-24T09:41:01.943Z,21.13
2017-08-24T09:43:30.026Z,18.60
2017-08-24T09:45:58.095Z,18.53
2017-08-24T09:48:26.186Z,19.00
2017-08-24T09:50:54.254Z,19.33
2017-08-24T09:53:23.110Z,21.40
2017-08-24T09:55:51.178Z,23.47
2017-08-24T09:58:19.260Z,22.37
2017-08-24T10:00:47.323Z,20.13
2017-08-24T10:03:15.387Z,22.03
2017-08-24T10:05:43.477Z,24.00
2017-08-24T10:08:11.527Z,22.20
2017-08-24T10:10:39.601Z,22.67
2017-08-24T10:13:07.687Z,21.47
2017-08-24T10:15:35.747Z,24.03
2017-08-24T10:18:03.821Z,22.93
2017-08-24T10:20:32.806Z,22.70
2017-08-24T10:23:00.882Z,22.03
2017-08-24T10:25:28.947Z,25.17
2017-08-24T10:27:57.027Z,23.33
2017-08-24T10:30:25.151Z,23.60
2017-08-24T10:32:53.167Z,22.40
2017-08-24T10:35:21.238Z,23.37
2017-08-24T10:37:49.292Z,26.13
2017-08-24T10:40:17.375Z,24.57
2017-08-24T10:42:45.448Z,24.20
2017-08-24T10:45:13.519Z,25.00
2017-08-24T10:47:41.591Z,25.17
2017-08-24T10:50:09.720Z,26.20
2017-08-24T10:52:37.805Z,21.10
2017-08-24T10:55:05.862Z,23.30
2017-08-24T10:57:34.702Z,25.10
2017-08-24T11:00:02.844Z,24.87
2017-08-24T11:02:30.995Z,21.93
2017-08-24T11:04:59.087Z,21.50
2017-08-24T11:07:27.683Z,21.10
2017-08-24T11:09:55.743Z,22.47
2017-08-24T11:12:23.821Z,21.70
2017-08-24T11:14:51.900Z,22.40
2017-08-24T11:17:19.971Z,22.10
2017-08-24T11:19:48.027Z,25.73
2017-08-24T11:22:16.095Z,25.10
2017-08-24T11:24:44.194Z,22.03
2017-08-24T11:27:12.266Z,21.53
2017-08-24T11:29:40.335Z,22.50
2017-08-24T11:32:08.428Z,23.97
2017-08-24T11:34:36.621Z,21.27
2017-08-24T11:37:04.728Z,20.30
2017-08-24T11:39:32.847Z,17.50
2017-08-24T11:42:00.919Z,21.87
2017-08-24T11:44:29.936Z,21.13
2017-08-24T11:46:58.022Z,22.10
2017-08-24T11:49:26.063Z,23.27
2017-08-24T11:51:54.138Z,22.60
2017-08-24T11:54:22.204Z,19.87
2017-08-24T11:56:50.272Z,22.07
2017-08-24T11:59:18.339Z,20.40
2017-08-24T12:01:46.421Z,21.23
2017-08-24T12:04:14.475Z,22.30
2017-08-24T12:06:43.026Z,20.17
2017-08-24T12:09:11.122Z,20.90
2017-08-24T12:11:39.206Z,21.13
2017-08-24T12:14:07.278Z,20.43
2017-08-24T12:16:35.334Z,20.83
2017-08-24T12:19:03.411Z,23.10
2017-08-24T12:21:31.479Z,22.20
2017-08-24T12:23:59.556Z,24.77
2017-08-24T12:26:27.619Z,23.93
2017-08-24T12:28:55.680Z,24.77
2017-08-24T12:31:23.748Z,25.23
2017-08-24T12:33:51.824Z,21.77
2017-08-24T12:36:19.903Z,21.20
2017-08-24T12:38:47.991Z,21.87
2017-08-24T12:41:16.080Z,21.80
2017-08-24T12:43:44.160Z,23.63
2017-08-24T12:46:13.002Z,23.17
2017-08-24T12:48:41.082Z,22.97
2017-08-24T12:51:09.999Z,19.03
2017-08-24T12:53:38.844Z,19.23
2017-08-24T12:56:06.921Z,19.60
2017-08-24T12:58:34.983Z,20.50
2017-08-24T13:01:03.094Z,20.37
2017-08-24T13:03:31.153Z,18.50
2017-08-24T13:05:59.223Z,17.80
2017-08-24T13:08:27.295Z,19.33
2017-08-24T13:10:55.402Z,17.67
2017-08-24T13:13:23.490Z,17.77
2017-08-24T13:15:52.331Z,18.53
2017-08-24T13:18:20.400Z,17.20
2017-08-24T13:20:48.516Z,17.23
2017-08-24T13:23:16.599Z,18.00
2017-08-24T13:25:45.460Z,15.53
2017-08-24T13:28:13.534Z,16.13
2017-08-24T13:30:41.618Z,16.60
2017-08-24T13:33:09.683Z,15.67
2017-08-24T13:35:37.763Z,15.60
2017-08-24T13:38:06.081Z,16.20
2017-08-24T13:40:34.138Z,14.73
2017-08-24T13:43:02.218Z,14.00
2017-08-24T13:45:30.282Z,16.70
2017-08-24T13:47:58.359Z,14.50
2017-08-24T13:50:26.423Z,14.70
2017-08-24T13:52:54.520Z,16.10
2017-08-24T13:55:22.578Z,14.50
2017-08-24T13:57:50.650Z,12.43
2017-08-24T14:00:18.741Z,13.13
2017-08-24T14:02:46.786Z,12.50
2017-08-24T14:05:14.882Z,11.63
2017-08-24T14:07:42.943Z,12.83
2017-08-24T14:10:11.039Z,12.73
2017-08-24T14:12:39.131Z,11.90
2017-08-24T14:15:07.187Z,12.80
2017-08-24T14:17:35.271Z,11.53
2017-08-24T14:20:04.108Z,11.10
2017-08-24T14:22:32.196Z,11.37
2017-08-24T14:25:00.278Z,12.30
2017-08-24T14:27:28.349Z,11.07
2017-08-24T14:29:56.410Z,10.10
2017-08-24T14:32:24.515Z,11.50
2017-08-24T14:34:52.581Z,11.63
2017-08-24T14:37:20.644Z,12.17
2017-08-24T14:39:48.758Z,12.17
2017-08-24T14:42:16.848Z,11.73
2017-08-24T14:44:44.929Z,11.63
2017-08-24T14:47:12.975Z,12.90
2017-08-24T14:49:41.069Z,12.27
2017-08-24T14:52:10.283Z,10.53
2017-08-24T14:54:38.395Z,12.20
2017-08-24T14:57:06.544Z,11.60
2017-08-24T14:59:34.613Z,11.50
2017-08-24T15:02:03.604Z,9.80
2017-08-24T15:04:31.671Z,8.80
2017-08-24T15:06:59.791Z,8.60
2017-08-24T15:09:27.852Z,10.03
2017-08-24T15:11:55.933Z,9.43
2017-08-24T15:14:23.996Z,9.07
2017-08-24T15:16:52.066Z,9.10
2017-08-24T15:19:20.114Z,9.53
2017-08-24T15:21:48.226Z,9.37
2017-08-24T15:24:16.386Z,8.93
2017-08-24T15:26:44.415Z,8.63
2017-08-24T15:29:12.504Z,8.87
2017-08-24T15:31:40.604Z,8.30
2017-08-24T15:34:09.517Z,7.03
2017-08-24T15:36:38.336Z,8.70
2017-08-24T15:39:06.414Z,7.50
2017-08-24T15:41:34.487Z,6.70
2017-08-24T15:44:02.543Z,7.70
2017-08-24T15:46:30.740Z,6.80
2017-08-24T15:48:58.797Z,6.17
2017-08-24T15:51:26.873Z,7.20
2017-08-24T15:53:54.972Z,6.47
2017-08-24T15:56:23.015Z,7.03
2017-08-24T15:58:51.098Z,6.53
2017-08-24T16:01:19.171Z,6.63
2017-08-24T16:03:47.259Z,6.20
2017-08-24T16:06:15.306Z,6.10
2017-08-24T16:08:43.371Z,6.83
2017-08-24T16:11:11.452Z,6.60
2017-08-24T16:13:39.514Z,7.00
2017-08-24T16:16:07.566Z,7.10
2017-08-24T16:18:35.631Z,6.63
2017-08-24T16:21:03.718Z,7.20
2017-08-24T16:23:31.844Z,6.40
2017-08-24T16:25:59.859Z,6.93
2017-08-24T16:28:27.951Z,6.47
2017-08-24T16:30:56.011Z,6.80
2017-08-24T16:33:24.100Z,7.40
2017-08-24T16:35:52.156Z,6.40
2017-08-24T16:38:20.203Z,7.30
2017-08-24T16:40:48.271Z,10.13
2017-08-24T16:43:16.375Z,7.07
2017-08-24T16:45:44.441Z,6.50
2017-08-24T16:48:12.631Z,7.30
2017-08-24T16:50:40.733Z,6.50
2017-08-24T16:53:09.567Z,7.70
2017-08-24T16:55:37.687Z,6.57
2017-08-24T16:58:05.824Z,6.20
2017-08-24T17:00:33.867Z,6.10
2017-08-24T17:03:01.938Z,6.37
2017-08-24T17:05:30.043Z,6.93
2017-08-24T17:07:58.117Z,6.43
2017-08-24T17:10:26.233Z,5.70
2017-08-24T17:12:54.293Z,6.57
2017-08-24T17:15:23.209Z,6.13
2017-08-24T17:17:51.835Z,5.90
2017-08-24T17:20:19.961Z,5.63
2017-08-24T17:22:48.096Z,6.20
2017-08-24T17:25:16.138Z,6.40
2017-08-24T17:27:44.207Z,6.90
2017-08-24T17:30:12.287Z,6.20
2017-08-24T17:32:40.352Z,6.07
2017-08-24T17:35:08.422Z,6.63
2017-08-24T17:37:36.512Z,5.73
2017-08-24T17:40:04.563Z,6.37
2017-08-24T17:42:32.656Z,6.10
2017-08-24T17:45:00.707Z,7.07
2017-08-24T17:47:28.803Z,5.90
2017-08-24T17:49:56.868Z,6.00
2017-08-24T17:52:24.920Z,5.90
2017-08-24T17:54:53.019Z,5.67
2017-08-24T17:57:21.083Z,6.00
2017-08-24T17:59:49.144Z,6.60
2017-08-24T18:02:17.255Z,5.90
2017-08-24T18:04:45.319Z,6.37
2017-08-24T18:07:13.386Z,5.50
2017-08-24T18:09:42.439Z,5.73
2017-08-24T18:12:10.523Z,5.60
2017-08-24T18:14:38.595Z,5.67
2017-08-24T18:17:06.748Z,6.10
2017-08-24T18:19:34.886Z,5.60
2017-08-24T18:22:03.535Z,5.70
2017-08-24T18:24:31.636Z,6.47
2017-08-24T18:26:59.815Z,5.90
2017-08-24T18:29:27.854Z,5.87
2017-08-24T18:31:55.954Z,6.87
2017-08-24T18:34:24.000Z,6.00
2017-08-24T18:36:52.063Z,6.07
2017-08-24T18:39:20.142Z,6.30
2017-08-24T18:41:48.200Z,6.57
2017-08-24T18:44:16.304Z,5.83
2017-08-24T18:46:44.437Z,5.83
2017-08-24T18:49:12.469Z,5.77
2017-08-24T18:51:40.533Z,6.80
2017-08-24T18:54:08.611Z,5.57
2017-08-24T18:56:36.687Z,7.00
2017-08-24T18:59:07.440Z,6.57
2017-08-24T19:01:35.491Z,6.40
2017-08-24T19:04:04.410Z,6.77
2017-08-24T19:06:32.505Z,6.20
2017-08-24T19:09:00.562Z,6.43
2017-08-24T19:11:28.699Z,6.57
2017-08-24T19:13:56.781Z,6.70
2017-08-24T19:16:24.850Z,6.63
2017-08-24T19:18:52.935Z,6.00
2017-08-24T19:21:21.013Z,6.80
2017-08-24T19:23:49.090Z,6.43
2017-08-24T19:26:17.167Z,6.30
2017-08-24T19:28:45.243Z,6.67
2017-08-24T19:31:13.362Z,7.00
2017-08-24T19:33:42.204Z,6.80
2017-08-24T19:36:10.295Z,7.33
2017-08-24T19:38:39.200Z,7.13
2017-08-24T19:41:07.250Z,8.00
2017-08-24T19:43:35.358Z,6.63
2017-08-24T19:46:03.431Z,7.77
2017-08-24T19:48:31.586Z,7.57
2017-08-24T19:51:00.427Z,7.40
2017-08-24T19:53:28.468Z,7.60
2017-08-24T19:55:56.609Z,7.73
2017-08-24T19:58:26.953Z,7.77
2017-08-24T20:00:55.052Z,7.63
2017-08-24T20:03:24.041Z,7.40
2017-08-24T20:05:52.125Z,8.60
2017-08-24T20:08:21.252Z,8.70
2017-08-24T20:10:53.082Z,8.80
2017-08-24T20:13:22.125Z,8.60
2017-08-24T20:15:50.197Z,8.90
2017-08-24T20:18:18.296Z,8.20
2017-08-24T20:20:46.398Z,7.20
2017-08-24T20:23:16.002Z,7.30
2017-08-24T20:25:44.094Z,8.23
2017-08-24T20:28:13.657Z,7.47
2017-08-24T20:30:41.731Z,8.07
2017-08-24T20:33:09.812Z,8.13
2017-08-24T20:35:37.895Z,8.80
2017-08-24T20:38:05.986Z,9.00
2017-08-24T20:40:34.044Z,8.50
2017-08-24T20:43:02.130Z,7.93
2017-08-24T20:45:30.207Z,7.73
2017-08-24T20:47:58.260Z,8.33
2017-08-24T20:50:27.148Z,7.50
2017-08-24T20:52:55.998Z,7.97
2017-08-24T20:55:24.080Z,8.10
2017-08-24T20:57:52.177Z,7.90
2017-08-24T21:00:20.510Z,8.47
2017-08-24T21:02:48.607Z,7.07
2017-08-24T21:05:16.690Z,7.90
2017-08-24T21:07:45.512Z,8.80
2017-08-24T21:10:13.583Z,8.93
2017-08-24T21:12:41.627Z,8.30
2017-08-24T21:15:09.798Z,9.67
2017-08-24T21:17:37.833Z,9.40
2017-08-24T21:20:05.904Z,9.33
2017-08-24T21:22:33.983Z,9.03
2017-08-24T21:25:02.059Z,8.97
2017-08-24T21:27:30.132Z,9.67
2017-08-24T21:39:43.191Z,7.20
2017-08-24T21:42:11.284Z,8.20
2017-08-24T21:44:39.337Z,7.87
2017-08-24T21:47:07.403Z,8.37
2017-08-24T21:49:35.571Z,8.10
2017-08-24T21:52:03.651Z,7.73
2017-08-24T21:54:32.584Z,7.80
2017-08-24T21:57:00.659Z,9.30
2017-08-24T21:59:28.712Z,8.30
2017-08-24T22:01:56.802Z,9.80
2017-08-24T22:04:24.878Z,11.70
2017-08-24T22:06:52.939Z,9.00
2017-08-24T22:09:21.011Z,8.80
2017-08-24T22:11:49.058Z,7.30
2017-08-24T22:14:17.139Z,7.67
2017-08-24T22:16:45.186Z,9.00
2017-08-24T22:19:13.271Z,9.00
2017-08-24T22:21:41.327Z,9.20
2017-08-24T22:24:09.441Z,9.20
2017-08-24T22:26:37.498Z,11.20
2017-08-24T22:29:05.579Z,10.10
2017-08-24T22:31:33.650Z,9.60
2017-08-24T22:34:02.226Z,10.47
2017-08-24T22:36:30.303Z,10.37
2017-08-24T22:38:58.375Z,9.77
2017-08-24T22:41:26.455Z,9.97
2017-08-24T22:43:54.508Z,10.50
2017-08-24T22:46:22.571Z,11.70
2017-08-24T22:48:50.655Z,11.10
2017-08-24T22:51:18.740Z,11.90
2017-08-24T23:07:09.571Z,9.80
2017-08-24T23:09:37.629Z,11.87
2017-08-24T23:12:06.209Z,10.43
2017-08-24T23:14:35.030Z,10.33
2017-08-24T23:17:03.094Z,9.77
2017-08-24T23:19:31.188Z,10.60
2017-08-24T23:21:59.238Z,9.37
2017-08-24T23:24:27.328Z,9.47
2017-08-24T23:26:55.402Z,9.10
2017-08-24T23:29:23.450Z,9.00
2017-08-24T23:31:51.523Z,9.17
2017-08-24T23:34:19.595Z,7.80
2017-08-24T23:36:47.685Z,7.80
2017-08-24T23:39:15.754Z,8.07
2017-08-24T23:41:43.819Z,7.43
2017-08-24T23:44:11.883Z,6.80
2017-08-24T23:46:39.963Z,7.57
2017-08-24T23:49:08.020Z,7.57
2017-08-24T23:51:36.094Z,8.30
2017-08-24T23:54:04.147Z,7.20
2017-08-24T23:56:32.212Z,6.97
2017-08-24T23:59:00.308Z,7.27
